Time;durP1;ratioP1;P1;durP2;ratioP2;P2;SDS_P1;SDS_P2;PMS_P1;PMS_P2;Temp;Humidity;BMP_temperature;BMP_pressure;BME280_temperature;BME280_humidity;BME280_pressure;Samples;Min_cycle;Max_cycle;Signal;HPM_P1;HPM_P2
2022/04/21 00:00:41;;;;;;;6.88;4.38;;;9.30;77.30;;;;;;6137779;23;20021;-78
2022/04/21 05:02:01;;;;;;;14.10;10.18;;;6.00;93.70;;;;;;6079081;23;20024;-77
2022/04/21 05:04:27;;;;;;;12.07;9.57;;;6.10;93.70;;;;;;6167846;23;20048;-77
2022/04/21 05:06:57;;;;;;;11.82;8.90;;;6.10;93.50;;;;;;6166594;23;20071;-79
2022/04/21 05:13:21;;;;;;;14.25;9.75;;;6.30;93.00;;;;;;6168043;23;20025;-79
2022/04/21 05:15:50;;;;;;;13.30;9.48;;;6.40;93.20;;;;;;6168084;23;20132;-79
2022/04/21 05:57:59;;;;;;;16.50;10.40;;;8.10;89.80;;;;;;6159673;23;20043;-77
2022/04/21 06:00:24;;;;;;;13.25;10.23;;;8.30;89.70;;;;;;6114362;23;20009;-77
2022/04/21 06:02:50;;;;;;;15.05;10.35;;;8.40;88.80;;;;;;6096540;23;20021;-77
2022/04/21 06:05:16;;;;;;;14.00;10.18;;;8.50;88.30;;;;;;6128064;23;20470;-78
2022/04/21 06:07:42;;;;;;;13.05;9.45;;;8.60;87.80;;;;;;6134678;23;20053;-80
2022/04/21 06:10:08;;;;;;;13.73;9.88;;;8.70;88.20;;;;;;6135577;23;19994;-78
2022/04/21 06:12:36;;;;;;;16.25;10.52;;;8.80;87.90;;;;;;6135295;23;20018;-80
2022/04/21 06:15:02;;;;;;;14.63;10.00;;;8.90;87.70;;;;;;6109880;23;20191;-79
2022/04/21 06:17:28;;;;;;;14.98;10.25;;;8.90;87.50;;;;;;6086038;23;20070;-78
2022/04/21 06:20:02;;;;;;;16.65;10.38;;;9.00;87.50;;;;;;6135407;23;20002;-79
2022/04/21 06:22:28;;;;;;;15.98;10.35;;;9.00;86.00;;;;;;6086321;23;20006;-79
2022/04/21 06:24:54;;;;;;;15.65;10.15;;;9.20;86.20;;;;;;6085102;23;20176;-78
2022/04/21 06:27:20;;;;;;;14.75;10.50;;;9.30;86.70;;;;;;6109193;23;20002;-78
2022/04/21 06:29:46;;;;;;;14.68;10.63;;;9.30;85.80;;;;;;6085870;23;20066;-79
2022/04/21 06:32:12;;;;;;;15.35;10.07;;;9.40;85.60;;;;;;6109326;23;20374;-78
2022/04/21 06:34:38;;;;;;;13.27;10.00;;;9.50;85.00;;;;;;6110001;23;20065;-79
2022/04/21 06:37:04;;;;;;;13.88;10.35;;;9.60;84.00;;;;;;6086010;23;20013;-79
2022/04/21 06:39:30;;;;;;;14.70;10.50;;;9.70;84.40;;;;;;6108685;23;20053;-78
2022/04/21 06:41:56;;;;;;;14.35;9.80;;;9.80;84.20;;;;;;6085016;23;20216;-78
2022/04/21 06:49:58;;;;;;;13.98;9.40;;;10.40;83.20;;;;;;6135407;23;20049;-78
2022/04/21 06:52:27;;;;;;;15.30;10.30;;;10.60;83.10;;;;;;6086438;23;20191;-78
2022/04/21 06:54:54;;;;;;;19.20;10.65;;;10.80;80.90;;;;;;6086203;23;20314;-78
2022/04/21 06:57:21;;;;;;;15.73;10.00;;;10.80;81.60;;;;;;6085760;23;20018;-78
2022/04/21 07:00:13;;;;;;;14.60;10.10;;;10.90;79.80;;;;;;6109570;23;20024;-82
2022/04/21 07:03:08;;;;;;;13.38;11.05;;;11.10;80.70;;;;;;6109081;23;20014;-78
2022/04/21 07:05:34;;;;;;;13.65;10.38;;;11.20;80.20;;;;;;6109831;23;20253;-83
2022/04/21 07:08:00;;;;;;;14.63;9.73;;;11.30;80.30;;;;;;6108873;23;20029;-78
2022/04/21 07:10:36;;;;;;;15.10;10.00;;;11.30;79.10;;;;;;6135658;23;20005;-79
2022/04/21 07:13:30;;;;;;;16.45;10.68;;;11.30;81.00;;;;;;6085819;23;20018;-79
2022/04/21 07:15:55;;;;;;;16.38;10.15;;;11.40;81.30;;;;;;6108075;23;20104;-80
2022/04/21 07:18:21;;;;;;;15.50;10.43;;;11.50;83.50;;;;;;6134997;23;20006;-78
2022/04/21 07:20:57;;;;;;;13.63;10.07;;;11.70;81.40;;;;;;6108630;23;20330;-77
2022/04/21 07:23:23;;;;;;;13.98;10.40;;;11.70;81.60;;;;;;6135139;23;20013;-78
2022/04/21 07:25:49;;;;;;;19.95;10.57;;;11.70;79.40;;;;;;6134820;23;20004;-78
2022/04/21 07:28:21;;;;;;;11.80;9.38;;;11.90;82.80;;;;;;6086642;23;20013;-77
2022/04/21 07:30:47;;;;;;;12.63;10.20;;;11.90;78.00;;;;;;6120007;23;20294;-78
2022/04/21 07:33:17;;;;;;;15.38;10.48;;;12.00;78.60;;;;;;6135166;23;20002;-78
2022/04/21 07:39:15;;;;;;;13.77;9.35;;;12.30;77.40;;;;;;6109155;23;20007;-80
2022/04/21 07:42:00;;;;;;;14.43;9.35;;;12.30;76.00;;;;;;6087598;23;20314;-79
2022/04/21 07:44:35;;;;;;;13.20;9.05;;;12.40;75.90;;;;;;6085208;23;20060;-78
2022/04/21 07:47:19;;;;;;;11.38;9.40;;;12.40;75.30;;;;;;6012814;23;20023;-79
2022/04/21 07:49:45;;;;;;;10.95;8.73;;;12.40;75.10;;;;;;6100535;23;20025;-77
2022/04/21 07:55:18;;;;;;;13.05;8.52;;;12.50;77.00;;;;;;6080665;23;20021;-78
2022/04/21 07:57:45;;;;;;;17.52;9.82;;;12.70;75.60;;;;;;6084045;23;20199;-79
2022/04/21 08:00:13;;;;;;;14.63;8.90;;;12.90;76.10;;;;;;6071480;23;20029;-79
2022/04/21 08:02:40;;;;;;;13.13;9.30;;;13.10;77.60;;;;;;6111945;23;20231;-76
2022/04/21 08:05:08;;;;;;;12.20;8.45;;;13.30;73.30;;;;;;6162264;23;20001;-78
2022/04/21 08:07:34;;;;;;;12.30;7.68;;;13.30;72.10;;;;;;6137379;23;20002;-77
2022/04/21 08:10:06;;;;;;;10.45;7.95;;;13.30;71.50;;;;;;6112071;23;20060;-78
2022/04/21 08:12:43;;;;;;;10.50;7.95;;;13.50;73.60;;;;;;6162593;23;20060;-77
2022/04/21 08:36:52;;;;;;;11.80;7.25;;;14.40;69.40;;;;;;6073443;23;20062;-78
2022/04/21 08:39:24;;;;;;;9.65;8.05;;;14.50;70.50;;;;;;6095531;23;20014;-79
2022/04/21 08:42:10;;;;;;;12.48;7.65;;;14.40;68.10;;;;;;6051230;23;20037;-78
2022/04/21 08:45:03;;;;;;;10.95;7.85;;;14.40;69.00;;;;;;6102752;23;20013;-78
2022/04/21 08:47:29;;;;;;;11.23;8.35;;;14.40;69.60;;;;;;6102134;23;20282;-78
2022/04/21 08:50:16;;;;;;;9.25;7.88;;;14.60;68.90;;;;;;6079277;23;20296;-77
2022/04/21 08:53:00;;;;;;;9.15;7.72;;;14.60;69.10;;;;;;6103712;23;20007;-79
2022/04/21 08:55:44;;;;;;;10.85;7.90;;;14.60;68.80;;;;;;6078939;23;20006;-81
2022/04/21 09:01:16;;;;;;;9.35;8.07;;;14.60;68.20;;;;;;6154669;23;20017;-78
2022/04/21 09:04:02;;;;;;;9.38;7.57;;;14.60;67.90;;;;;;6162048;23;20002;-79
2022/04/21 09:06:29;;;;;;;10.82;7.43;;;14.50;68.10;;;;;;6162380;23;20002;-78
2022/04/21 09:09:33;;;;;;;9.95;6.78;;;14.70;68.50;;;;;;6136519;23;20192;-78
2022/04/21 09:11:59;;;;;;;9.70;7.32;;;15.10;67.20;;;;;;6161763;23;20052;-78
2022/04/21 09:14:24;;;;;;;9.45;7.50;;;15.20;65.60;;;;;;6164310;23;20283;-79
2022/04/21 09:16:51;;;;;;;10.35;7.72;;;15.20;65.90;;;;;;6192372;23;20013;-78
2022/04/21 09:19:59;;;;;;;9.95;7.13;;;15.10;65.80;;;;;;6167405;23;20282;-80
2022/04/21 09:23:02;;;;;;;13.98;8.18;;;15.10;66.70;;;;;;6193996;23;20011;-80
2022/04/21 09:25:31;;;;;;;9.20;7.68;;;15.20;65.80;;;;;;6193778;23;20015;-77
2022/04/21 09:27:59;;;;;;;9.40;7.65;;;15.20;65.40;;;;;;6193600;23;20061;-80
2022/04/21 09:30:25;;;;;;;9.98;7.47;;;15.20;65.80;;;;;;6193071;23;20067;-80
2022/04/21 09:35:45;;;;;;;10.25;6.15;;;15.10;65.70;;;;;;6167627;23;20032;-78
2022/04/21 09:42:08;;;;;;;9.75;6.13;;;15.60;64.60;;;;;;6204350;23;20052;-78
2022/04/21 09:47:54;;;;;;;9.27;6.60;;;16.20;64.00;;;;;;6102947;23;20014;-78
2022/04/21 09:50:21;;;;;;;8.85;6.55;;;16.50;63.00;;;;;;6102744;23;20033;-79
2022/04/21 09:52:53;;;;;;;8.88;6.90;;;16.60;62.00;;;;;;6102644;23;20006;-81
2022/04/21 09:55:32;;;;;;;6.32;5.53;;;16.60;61.90;;;;;;6102894;23;20115;-78
2022/04/21 09:58:08;;;;;;;10.30;5.40;;;16.60;62.70;;;;;;6101766;23;20066;-78
2022/04/21 10:00:36;;;;;;;8.60;5.38;;;16.80;62.80;;;;;;6102712;23;20014;-81
2022/04/21 10:03:05;;;;;;;8.00;5.75;;;16.90;61.50;;;;;;6104038;23;20024;-79
2022/04/21 10:05:32;;;;;;;7.70;5.50;;;16.80;60.50;;;;;;6104917;23;20002;-78
2022/04/21 10:08:43;;;;;;;7.22;5.55;;;16.90;61.00;;;;;;6103948;23;20002;-79
2022/04/21 10:11:38;;;;;;;8.20;5.45;;;16.70;60.40;;;;;;6017506;23;20008;-79
2022/04/21 10:17:16;;;;;;;7.47;5.45;;;16.60;61.30;;;;;;6017849;23;20262;-79
2022/04/21 10:19:42;;;;;;;8.35;5.63;;;16.80;63.00;;;;;;6018762;23;20031;-85
2022/04/21 10:22:14;;;;;;;6.65;5.28;;;16.90;62.10;;;;;;6038137;23;20007;-80
2022/04/21 10:24:41;;;;;;;6.45;4.97;;;16.90;61.80;;;;;;6075933;23;20015;-78
2022/04/21 10:27:44;;;;;;;6.22;4.80;;;16.90;61.10;;;;;;6074981;23;20007;-79
2022/04/21 10:30:13;;;;;;;6.70;4.60;;;16.70;60.70;;;;;;6074027;23;20014;-79
2022/04/21 10:32:46;;;;;;;6.38;4.82;;;16.70;62.70;;;;;;6075640;23;20018;-80
2022/04/21 10:35:26;;;;;;;7.07;5.05;;;16.90;62.00;;;;;;6074852;23;20007;-79
2022/04/21 10:38:17;;;;;;;8.02;5.45;;;17.00;62.40;;;;;;6075503;23;20007;-81
2022/04/21 10:41:16;;;;;;;6.88;4.72;;;17.20;62.00;;;;;;6074607;23;19999;-77
2022/04/21 10:43:48;;;;;;;5.97;5.20;;;17.30;61.90;;;;;;6075093;23;20014;-80
2022/04/21 10:46:26;;;;;;;6.72;4.82;;;17.30;60.10;;;;;;6121030;23;20068;-79
2022/04/21 10:48:53;;;;;;;6.50;4.28;;;17.40;61.60;;;;;;6195388;23;20001;-81
2022/04/21 10:57:36;;;;;;;5.97;4.60;;;17.80;61.30;;;;;;6194655;23;20012;-79
2022/04/21 11:00:04;;;;;;;7.25;4.40;;;17.90;60.50;;;;;;6194830;23;20004;-78
2022/04/21 11:02:41;;;;;;;8.65;4.13;;;18.20;60.50;;;;;;6168884;23;20017;-79
2022/04/21 11:05:34;;;;;;;7.90;4.40;;;18.50;60.10;;;;;;6168351;23;20073;-79
2022/04/21 11:08:10;;;;;;;5.70;4.00;;;18.80;59.20;;;;;;6136200;23;20012;-79
2022/04/21 11:10:41;;;;;;;7.35;3.53;;;19.10;58.50;;;;;;6193692;23;20068;-81
2022/04/21 11:13:17;;;;;;;6.43;3.97;;;19.50;58.50;;;;;;6193903;23;20092;-80
2022/04/21 11:15:49;;;;;;;5.05;3.30;;;19.50;58.20;;;;;;6194392;23;20024;-80
2022/04/21 11:18:41;;;;;;;4.70;3.30;;;19.70;56.90;;;;;;6194692;23;20024;-80
2022/04/21 11:21:26;;;;;;;4.60;3.03;;;19.90;56.50;;;;;;6189065;23;20005;-78
2022/04/21 11:24:12;;;;;;;3.50;2.78;;;19.90;56.90;;;;;;6195059;23;20004;-78
2022/04/21 11:26:41;;;;;;;3.22;2.60;;;20.20;56.20;;;;;;6102942;23;20204;-79
2022/04/21 11:29:12;;;;;;;4.43;2.90;;;20.40;56.00;;;;;;6079295;23;20014;-79
2022/04/21 11:31:39;;;;;;;9.45;2.85;;;20.50;56.20;;;;;;6105653;23;20022;-79
2022/04/21 11:34:04;;;;;;;2.63;2.10;;;20.60;56.10;;;;;;6079307;23;19998;-79
2022/04/21 11:37:23;;;;;;;4.55;2.70;;;20.80;55.20;;;;;;6103463;23;20200;-80
2022/04/21 11:39:48;;;;;;;3.17;2.22;;;22.00;53.70;;;;;;6103460;23;20014;-77
2022/04/21 11:42:26;;;;;;;4.13;2.17;;;23.10;52.20;;;;;;6102469;23;20130;-79
2022/04/21 11:44:51;;;;;;;3.03;1.95;;;23.20;52.10;;;;;;6103762;23;20037;-80
2022/04/21 11:47:21;;;;;;;3.50;1.88;;;23.00;51.20;;;;;;6078170;23;20022;-79
2022/04/21 11:49:59;;;;;;;3.20;1.77;;;22.50;51.90;;;;;;6103508;23;20006;-78
2022/04/21 11:52:27;;;;;;;3.95;1.90;;;21.90;52.80;;;;;;6079609;23;20018;-78
2022/04/21 11:55:04;;;;;;;4.85;2.30;;;21.90;53.70;;;;;;6079363;23;20015;-78
2022/04/21 11:57:40;;;;;;;4.00;1.80;;;22.50;52.90;;;;;;6079380;23;20030;-80
2022/04/21 12:07:08;;;;;;;2.90;1.70;;;24.50;50.30;;;;;;6192326;23;20112;-81
2022/04/21 12:10:21;;;;;;;2.97;1.40;;;23.70;50.40;;;;;;6161959;23;20190;-78
2022/04/21 12:13:21;;;;;;;;;;;23.20;50.90;;;;;;6194876;23;20016;-80
2022/04/21 12:15:47;;;;;;;2.22;0.73;;;23.10;51.10;;;;;;6166650;23;19926;-79
2022/04/21 12:21:34;;;;;;;1.98;0.70;;;23.20;50.70;;;;;;6179566;23;20347;-79
2022/04/21 12:24:10;;;;;;;4.63;1.10;;;23.00;49.60;;;;;;6167237;23;20168;-77
2022/04/21 12:26:37;;;;;;;1.48;0.82;;;23.70;49.80;;;;;;6193877;23;20156;-78
2022/04/21 12:29:06;;;;;;;2.80;0.90;;;24.00;48.90;;;;;;6196033;23;20015;-79
2022/04/21 12:32:02;;;;;;;1.30;0.80;;;25.90;47.50;;;;;;6193406;23;20024;-79
2022/04/21 12:34:48;;;;;;;2.38;0.82;;;27.10;45.60;;;;;;6194256;23;20005;-77
2022/04/21 12:37:14;;;;;;;3.40;1.00;;;27.30;45.40;;;;;;6167230;23;20052;-78
2022/04/21 12:39:46;;;;;;;5.47;1.40;;;27.90;45.50;;;;;;6167812;23;20004;-78
2022/04/21 12:42:40;;;;;;;3.60;1.83;;;28.00;45.70;;;;;;6161354;23;20012;-78
2022/04/21 12:45:06;;;;;;;;;;;28.10;45.90;;;;;;6191804;23;20028;-78
2022/04/21 12:47:44;;;;;;;2.40;0.80;;;26.80;45.80;;;;;;6166848;23;19939;-81
2022/04/21 12:50:16;;;;;;;;;;;25.90;45.90;;;;;;6167588;23;20001;-78
2022/04/21 12:52:47;;;;;;;1.58;0.77;;;25.50;47.00;;;;;;6193732;23;19911;-81
2022/04/21 12:55:27;;;;;;;3.67;1.30;;;25.30;47.10;;;;;;6193899;23;20020;-80
2022/04/21 12:58:06;;;;;;;2.60;0.95;;;25.90;46.50;;;;;;6193710;23;20083;-79
2022/04/21 13:00:37;;;;;;;1.50;0.88;;;26.30;45.60;;;;;;6166391;23;20067;-78
2022/04/21 13:03:06;;;;;;;2.15;1.25;;;25.30;46.70;;;;;;6193323;23;20053;-77
2022/04/21 13:05:33;;;;;;;1.92;1.00;;;24.50;47.80;;;;;;6167483;23;20051;-77
2022/04/21 13:07:59;;;;;;;2.50;1.00;;;23.80;48.10;;;;;;6193621;23;20089;-77
2022/04/21 13:10:26;;;;;;;3.28;1.02;;;23.40;49.30;;;;;;6193292;23;20056;-77
2022/04/21 13:12:52;;;;;;;2.40;1.00;;;23.00;49.30;;;;;;6167045;23;20005;-80
2022/04/21 13:15:26;;;;;;;1.75;0.80;;;23.30;49.60;;;;;;6191286;23;20325;-78
2022/04/21 13:17:58;;;;;;;2.95;1.15;;;23.70;49.50;;;;;;6167503;23;20005;-79
2022/04/21 13:23:08;;;;;;;4.78;1.80;;;24.70;47.40;;;;;;6167011;23;20039;-78
2022/04/21 13:25:34;;;;;;;4.07;1.90;;;23.90;49.00;;;;;;6193553;23;20001;-78
2022/04/21 13:28:03;;;;;;;3.45;2.03;;;23.70;50.00;;;;;;6193445;23;20044;-78
2022/04/21 13:30:29;;;;;;;3.60;1.50;;;23.40;51.00;;;;;;6193129;23;20008;-79
2022/04/21 13:35:40;;;;;;;3.90;1.80;;;24.00;49.20;;;;;;6193948;23;20005;-79
2022/04/21 13:38:06;;;;;;;3.03;1.50;;;23.60;49.40;;;;;;6195872;23;20009;-79
2022/04/21 13:40:33;;;;;;;3.05;1.52;;;23.30;50.00;;;;;;6196072;23;20012;-80
2022/04/21 13:42:59;;;;;;;5.53;1.63;;;23.40;50.20;;;;;;6195650;23;20253;-77
2022/04/21 13:45:25;;;;;;;2.92;1.70;;;23.50;50.40;;;;;;6194762;23;20040;-78
2022/04/21 13:47:52;;;;;;;4.10;1.50;;;23.40;49.60;;;;;;6195612;23;20009;-79
2022/04/21 13:50:21;;;;;;;3.17;1.50;;;24.30;49.40;;;;;;6195251;23;20060;-80
2022/04/21 13:52:49;;;;;;;2.63;1.10;;;26.80;47.00;;;;;;6195500;23;20011;-79
2022/04/21 13:55:15;;;;;;;3.40;1.15;;;29.40;44.30;;;;;;6143288;23;20184;-77
2022/04/21 13:57:50;;;;;;;4.70;1.02;;;30.40;42.80;;;;;;6194963;23;20013;-79
2022/04/21 14:00:16;;;;;;;4.68;1.40;;;29.60;42.90;;;;;;6194094;23;20016;-80
2022/04/21 14:02:42;;;;;;;3.28;1.23;;;28.10;43.60;;;;;;6195248;23;20000;-79
2022/04/21 14:05:08;;;;;;;2.15;1.13;;;27.00;44.80;;;;;;6194405;23;20001;-78
2022/04/21 14:07:43;;;;;;;5.32;1.40;;;26.40;45.90;;;;;;6195686;23;20001;-78
2022/04/21 14:10:11;;;;;;;4.32;1.63;;;26.40;46.70;;;;;;6196859;23;20341;-79
2022/04/21 14:12:37;;;;;;;2.00;1.20;;;27.20;45.00;;;;;;6169046;23;20299;-78
2022/04/21 14:15:03;;;;;;;2.95;1.40;;;26.00;46.00;;;;;;6194570;23;20020;-78
2022/04/21 14:17:30;;;;;;;2.33;1.40;;;25.70;46.10;;;;;;6144256;23;20283;-78
2022/04/21 14:20:07;;;;;;;3.10;1.50;;;25.60;46.80;;;;;;6169078;23;20050;-77
2022/04/21 14:22:36;;;;;;;2.35;1.33;;;25.50;46.80;;;;;;6195449;23;20005;-79
2022/04/21 14:25:02;;;;;;;4.25;1.27;;;25.20;46.80;;;;;;6194892;23;19993;-79
2022/04/21 14:27:28;;;;;;;3.65;1.40;;;25.20;47.30;;;;;;6167271;23;20015;-77
2022/04/21 14:29:55;;;;;;;2.75;1.20;;;26.10;47.10;;;;;;6195663;23;19993;-76
2022/04/21 14:32:21;;;;;;;1.95;1.10;;;27.80;45.40;;;;;;6166803;23;20197;-79
2022/04/21 14:34:47;;;;;;;1.70;1.10;;;28.90;44.30;;;;;;6195038;23;19989;-77
2022/04/21 14:37:12;;;;;;;3.55;1.70;;;30.90;43.30;;;;;;6194339;23;20068;-76
2022/04/21 14:45:07;;;;;;;4.90;1.50;;;32.60;40.60;;;;;;6166933;23;20184;-78
2022/04/21 14:47:33;;;;;;;9.73;1.70;;;30.40;42.00;;;;;;6194637;23;20001;-77
2022/04/21 14:49:59;;;;;;;3.05;1.20;;;29.10;42.60;;;;;;6194735;23;20024;-79
2022/04/21 14:52:25;;;;;;;3.08;1.65;;;28.50;44.40;;;;;;6168091;23;20023;-77
2022/04/21 14:54:50;;;;;;;2.40;1.15;;;30.20;42.40;;;;;;6194853;23;20000;-76
2022/04/21 14:57:16;;;;;;;2.70;1.00;;;32.50;40.90;;;;;;6194034;23;20005;-77
2022/04/21 14:59:43;;;;;;;2.90;0.98;;;34.00;40.20;;;;;;6168976;23;20235;-78
2022/04/21 15:02:09;;;;;;;3.42;0.90;;;35.20;39.10;;;;;;6193633;23;20020;-78
2022/04/21 15:04:35;;;;;;;2.00;1.10;;;35.50;38.80;;;;;;6144754;23;20211;-78
2022/04/21 15:07:10;;;;;;;2.25;1.02;;;34.00;38.60;;;;;;6194896;23;20020;-78
2022/04/21 15:09:39;;;;;;;4.35;1.20;;;32.10;40.00;;;;;;6195160;23;20009;-79
2022/04/21 15:12:06;;;;;;;2.05;0.90;;;30.20;41.40;;;;;;6194239;23;20013;-77
2022/04/21 15:14:32;;;;;;;13.85;1.20;;;28.20;42.40;;;;;;6194228;23;20295;-78
2022/04/21 15:16:58;;;;;;;2.55;1.00;;;26.60;45.10;;;;;;6193859;23;20009;-76
2022/04/21 15:19:24;;;;;;;2.60;1.13;;;25.80;45.60;;;;;;6167726;23;20013;-76
2022/04/21 15:21:50;;;;;;;3.03;0.93;;;25.40;45.80;;;;;;6194516;23;19989;-76
2022/04/21 15:24:16;;;;;;;2.70;1.50;;;25.10;45.90;;;;;;6193943;23;20008;-76
2022/04/21 15:26:41;;;;;;;2.38;0.95;;;24.50;46.60;;;;;;6194604;23;20267;-76
2022/04/21 15:29:07;;;;;;;5.15;1.40;;;24.00;46.90;;;;;;6194245;23;20001;-77
2022/04/21 15:31:33;;;;;;;3.20;1.10;;;22.90;48.40;;;;;;6167306;23;20013;-78
2022/04/21 15:33:59;;;;;;;4.20;1.02;;;22.30;49.30;;;;;;6168526;23;20005;-78
2022/04/21 15:36:24;;;;;;;3.63;1.17;;;21.90;50.10;;;;;;6193644;23;20131;-79
2022/04/21 15:38:50;;;;;;;5.78;1.35;;;21.50;51.10;;;;;;6195001;23;20215;-79
2022/04/21 15:41:16;;;;;;;4.07;1.35;;;21.30;50.70;;;;;;6167889;23;20001;-76
2022/04/21 15:43:43;;;;;;;5.47;1.00;;;21.20;51.10;;;;;;6194413;23;20064;-77
2022/04/21 15:46:13;;;;;;;4.22;1.08;;;21.40;50.50;;;;;;6193876;23;20021;-77
2022/04/21 15:48:39;;;;;;;1.70;0.90;;;22.10;50.00;;;;;;6143809;23;20016;-78
2022/04/21 15:51:06;;;;;;;5.10;1.00;;;22.50;48.80;;;;;;6168088;23;20056;-77
2022/04/21 15:59:00;;;;;;;3.53;1.10;;;21.90;49.80;;;;;;6164498;23;20290;-76
2022/04/21 16:01:27;;;;;;;3.00;1.17;;;21.50;50.80;;;;;;6133774;23;20061;-78
2022/04/21 16:03:58;;;;;;;3.92;1.10;;;21.30;51.20;;;;;;6164789;23;20006;-78
2022/04/21 16:06:24;;;;;;;3.60;1.40;;;21.30;51.30;;;;;;6164050;23;20012;-79
2022/04/21 16:08:51;;;;;;;3.05;1.40;;;21.00;51.20;;;;;;6127766;23;20020;-78
2022/04/21 16:11:18;;;;;;;2.00;1.25;;;20.70;51.70;;;;;;6163722;23;20299;-78
2022/04/21 16:13:48;;;;;;;2.80;1.17;;;20.60;51.80;;;;;;6162153;23;20012;-78
2022/04/21 16:16:19;;;;;;;3.22;1.30;;;20.40;52.10;;;;;;6155671;23;20080;-78
2022/04/21 16:18:45;;;;;;;2.72;1.33;;;20.40;52.00;;;;;;6165250;23;20009;-79
2022/04/21 16:21:12;;;;;;;3.85;1.20;;;20.50;52.00;;;;;;6164810;23;20021;-79
2022/04/21 16:23:38;;;;;;;3.97;1.58;;;20.70;51.70;;;;;;6137733;23;20010;-78
2022/04/21 16:26:05;;;;;;;3.67;1.33;;;20.80;51.30;;;;;;6154722;23;19998;-78
2022/04/21 16:28:31;;;;;;;2.17;1.00;;;20.90;50.90;;;;;;6164242;23;20005;-77
2022/04/21 16:30:57;;;;;;;3.17;1.55;;;21.80;49.60;;;;;;6163042;23;20056;-77
2022/04/21 16:33:23;;;;;;;5.38;1.15;;;23.80;47.70;;;;;;6158125;23;20016;-76
2022/04/21 16:35:49;;;;;;;2.55;1.05;;;24.90;46.10;;;;;;6164555;23;20006;-77
2022/04/21 16:38:15;;;;;;;2.50;0.70;;;26.40;44.60;;;;;;6164207;23;20271;-79
2022/04/21 16:40:41;;;;;;;2.42;0.90;;;27.50;43.50;;;;;;6114166;23;20010;-78
2022/04/21 16:43:07;;;;;;;3.88;1.45;;;27.70;42.50;;;;;;6163132;23;20001;-79
2022/04/21 16:45:33;;;;;;;2.08;1.08;;;27.50;42.80;;;;;;6161750;23;20040;-80
2022/04/21 16:47:59;;;;;;;2.33;1.25;;;28.00;42.10;;;;;;6164195;23;20288;-78
2022/04/21 16:50:30;;;;;;;3.80;0.98;;;26.90;42.00;;;;;;6158389;23;20081;-78
2022/04/21 16:52:56;;;;;;;2.75;1.23;;;24.90;44.20;;;;;;6113906;23;20100;-78
2022/04/21 16:55:22;;;;;;;2.00;0.95;;;23.30;46.20;;;;;;6157559;23;20040;-77
2022/04/21 16:57:48;;;;;;;1.98;0.90;;;22.30;47.60;;;;;;6188069;23;20048;-78
2022/04/21 17:02:54;;;;;;;2.70;1.15;;;21.70;48.70;;;;;;6193457;23;20005;-78
2022/04/21 17:03:00;;;;;;;2.58;1.30;;;21.40;49.60;;;;;;6167226;23;20017;-77
2022/04/21 17:05:26;;;;;;;2.38;1.15;;;21.00;50.10;;;;;;6167262;23;20040;-77
2022/04/21 17:07:52;;;;;;;2.92;1.13;;;20.80;51.20;;;;;;6194438;23;20186;-77
2022/04/21 17:10:18;;;;;;;1.95;1.00;;;20.50;51.10;;;;;;6193954;23;20016;-78
2022/04/21 17:12:43;;;;;;;6.38;1.50;;;20.30;51.80;;;;;;6195887;23;20009;-77
2022/04/21 17:15:09;;;;;;;2.40;1.67;;;20.10;52.00;;;;;;6195492;23;20028;-77
2022/04/21 17:17:35;;;;;;;5.05;1.70;;;19.80;52.00;;;;;;6195641;23;20314;-76
2022/04/21 17:20:01;;;;;;;2.20;1.50;;;19.60;52.80;;;;;;6195972;23;20048;-78
2022/04/21 17:22:27;;;;;;;3.00;1.80;;;19.30;53.50;;;;;;6195723;23;20179;-77
2022/04/21 17:24:52;;;;;;;5.82;1.88;;;19.10;54.00;;;;;;6196431;23;20025;-77
2022/04/21 17:27:18;;;;;;;3.85;1.95;;;19.10;53.50;;;;;;6195669;23;20057;-77
2022/04/21 17:29:44;;;;;;;4.07;1.65;;;18.90;54.10;;;;;;6170173;23;20005;-78
2022/04/21 17:32:11;;;;;;;3.45;1.67;;;18.80;54.20;;;;;;6168953;23;20068;-77
2022/04/21 17:34:38;;;;;;;2.60;1.60;;;18.60;54.80;;;;;;6195039;23;20215;-77
2022/04/21 17:37:04;;;;;;;3.70;2.00;;;18.50;55.00;;;;;;6169420;23;20013;-77
2022/04/21 17:39:29;;;;;;;4.60;1.60;;;18.20;55.50;;;;;;6195676;23;20376;-77
2022/04/21 17:41:55;;;;;;;4.50;1.77;;;18.10;55.90;;;;;;6196261;23;20005;-78
2022/04/21 17:44:21;;;;;;;4.45;1.70;;;18.00;56.10;;;;;;6168978;23;20005;-78
2022/04/21 17:46:47;;;;;;;3.28;2.08;;;17.80;56.80;;;;;;6195249;23;20256;-78
2022/04/21 17:49:13;;;;;;;3.65;2.45;;;17.70;56.60;;;;;;6196127;23;19989;-78
2022/04/21 17:51:39;;;;;;;4.05;2.42;;;17.60;57.20;;;;;;6194388;23;20055;-78
2022/04/21 17:54:06;;;;;;;4.22;1.98;;;17.40;57.40;;;;;;6195793;23;20071;-78
2022/04/21 17:56:32;;;;;;;2.92;1.80;;;17.20;58.50;;;;;;6194653;23;20020;-78
2022/04/21 17:58:59;;;;;;;5.43;2.40;;;17.10;58.40;;;;;;6196119;23;20060;-78
2022/04/21 18:01:25;;;;;;;4.00;1.73;;;17.00;58.60;;;;;;6167752;23;20017;-77
2022/04/21 18:03:51;;;;;;;4.00;2.17;;;16.80;58.30;;;;;;6196192;23;20019;-77
2022/04/21 18:06:16;;;;;;;4.80;2.00;;;16.70;59.20;;;;;;6195370;23;20001;-76
2022/04/21 18:08:42;;;;;;;3.75;2.10;;;16.50;59.20;;;;;;6195199;23;20024;-76
2022/04/21 18:11:09;;;;;;;4.00;1.98;;;16.30;59.20;;;;;;6194990;23;20048;-76
2022/04/21 18:13:35;;;;;;;4.55;2.15;;;16.20;60.00;;;;;;6194873;23;20044;-76
2022/04/21 18:16:01;;;;;;;3.13;1.75;;;16.00;60.90;;;;;;6194397;23;20024;-77
2022/04/21 18:18:26;;;;;;;4.40;2.15;;;16.00;61.00;;;;;;6168885;23;20190;-77
2022/04/21 18:20:52;;;;;;;3.33;1.83;;;16.00;60.80;;;;;;6195476;23;20001;-75
2022/04/21 18:23:18;;;;;;;2.65;1.80;;;15.90;61.00;;;;;;6195433;23;20005;-76
2022/04/21 18:25:44;;;;;;;3.65;1.88;;;15.80;61.90;;;;;;6194573;23;20001;-75
2022/04/21 18:28:10;;;;;;;2.60;1.77;;;15.70;60.50;;;;;;6194934;23;20056;-76
2022/04/21 18:30:39;;;;;;;4.72;1.73;;;15.70;61.60;;;;;;6193818;23;20040;-77
2022/04/21 18:33:05;;;;;;;2.75;1.73;;;15.60;61.80;;;;;;6195442;23;20035;-76
2022/04/21 18:35:31;;;;;;;4.00;1.85;;;15.60;61.50;;;;;;6168665;23;20009;-75
2022/04/21 18:37:57;;;;;;;2.83;1.73;;;15.50;61.10;;;;;;6169839;23;19997;-76
2022/04/21 18:40:23;;;;;;;3.60;1.90;;;15.40;61.50;;;;;;6197037;23;20005;-75
2022/04/21 18:42:49;;;;;;;4.20;1.88;;;15.30;61.80;;;;;;6196318;23;20171;-74
2022/04/21 18:45:15;;;;;;;4.20;1.90;;;15.20;63.10;;;;;;6193942;23;19989;-76
2022/04/21 18:47:42;;;;;;;4.22;2.22;;;15.10;63.90;;;;;;6132869;23;20240;-77
2022/04/21 18:50:10;;;;;;;4.88;1.85;;;15.00;64.20;;;;;;6134086;23;19990;-77
2022/04/21 18:52:36;;;;;;;4.25;2.22;;;14.90;64.80;;;;;;6133770;23;20049;-78
2022/04/21 18:55:02;;;;;;;3.85;1.90;;;14.80;64.80;;;;;;6108405;23;20061;-78
2022/04/21 18:58:23;;;;;;;5.88;2.15;;;14.60;65.70;;;;;;6133538;23;20326;-77
2022/04/21 19:00:16;;;;;;;2.92;1.73;;;14.50;65.80;;;;;;6132087;23;20009;-77
2022/04/21 19:02:41;;;;;;;4.80;2.28;;;14.40;66.40;;;;;;6133464;23;20468;-77
2022/04/21 19:05:07;;;;;;;5.05;1.85;;;14.20;66.10;;;;;;6133952;23;20023;-78
2022/04/21 19:07:33;;;;;;;8.38;2.75;;;14.10;67.00;;;;;;6133379;23;20010;-76
2022/04/21 19:10:02;;;;;;;5.53;2.20;;;14.00;66.90;;;;;;6133263;23;20018;-79
2022/04/21 19:12:28;;;;;;;3.42;2.13;;;13.90;67.10;;;;;;6132073;23;20025;-76
2022/04/21 19:14:54;;;;;;;3.20;2.05;;;13.80;67.20;;;;;;6109595;23;20018;-76
2022/04/21 19:17:20;;;;;;;6.63;2.28;;;13.70;68.00;;;;;;6108587;23;20306;-76
2022/04/21 19:19:46;;;;;;;4.45;1.88;;;13.60;68.10;;;;;;6193291;23;20291;-76
2022/04/21 19:22:13;;;;;;;4.75;2.15;;;13.50;69.20;;;;;;6195211;23;20076;-76
2022/04/21 19:24:39;;;;;;;3.90;1.92;;;13.50;68.40;;;;;;6169122;23;20307;-76
2022/04/21 19:27:11;;;;;;;3.85;2.20;;;13.50;68.40;;;;;;6194647;23;20325;-76
2022/04/21 19:29:46;;;;;;;5.22;1.77;;;13.40;68.70;;;;;;6168638;23;20005;-76
2022/04/21 19:32:16;;;;;;;3.30;1.77;;;13.40;68.30;;;;;;6193968;23;20029;-75
2022/04/21 19:34:42;;;;;;;4.80;1.83;;;13.30;68.80;;;;;;6194135;23;20005;-75
2022/04/21 19:37:09;;;;;;;4.65;1.90;;;13.20;69.30;;;;;;6169414;23;20005;-76
2022/04/21 19:39:35;;;;;;;2.97;1.70;;;13.00;69.40;;;;;;6145107;23;19997;-76
2022/04/21 19:42:03;;;;;;;3.60;2.25;;;12.90;70.30;;;;;;6196427;23;20004;-76
2022/04/21 19:44:29;;;;;;;3.83;1.63;;;12.80;70.20;;;;;;6194912;23;20000;-77
2022/04/21 19:46:56;;;;;;;2.88;1.98;;;12.70;71.00;;;;;;6194984;23;20013;-76
2022/04/21 19:49:22;;;;;;;3.45;1.92;;;12.60;71.10;;;;;;6144167;23;20005;-76
2022/04/21 19:51:48;;;;;;;3.20;2.05;;;12.60;71.20;;;;;;6194744;23;20263;-76
2022/04/21 19:54:14;;;;;;;3.15;2.20;;;12.50;71.40;;;;;;6169711;23;20275;-76
2022/04/21 19:56:42;;;;;;;3.70;1.90;;;12.40;71.80;;;;;;6167628;23;20068;-77
2022/04/21 19:59:08;;;;;;;4.53;2.28;;;12.30;72.30;;;;;;6195180;23;20008;-75
2022/04/21 20:01:34;;;;;;;3.13;1.90;;;12.20;72.70;;;;;;6167461;23;20017;-76
2022/04/21 20:04:00;;;;;;;3.92;2.00;;;12.10;72.90;;;;;;6143899;23;20005;-75
2022/04/21 20:09:12;;;;;;;4.35;2.42;;;12.10;73.40;;;;;;6194780;23;20004;-78